sensor_id;sensor_type;location;lat;lon;timestamp;P1;durP1;ratioP1;P2;durP2;ratioP2
13795;SDS011;40911;51.552;9.874;2023-03-14T00:01:13;2.53;;;1.77;;
13795;SDS011;40911;51.552;9.874;2023-03-14T00:03:35;1.92;;;1.63;;
13795;SDS011;40911;51.552;9.874;2023-03-14T00:06:01;2.75;;;1.75;;
13795;SDS011;40911;51.552;9.874;2023-03-14T00:08:23;1.88;;;1.60;;
13795;SDS011;40911;51.552;9.874;2023-03-14T00:10:44;1.73;;;1.55;;
13795;SDS011;40911;51.552;9.874;2023-03-14T00:13:07;2.03;;;1.83;;
13795;SDS011;40911;51.552;9.874;2023-03-14T00:15:29;1.83;;;1.73;;
13795;SDS011;40911;51.552;9.874;2023-03-14T00:17:50;1.80;;;1.70;;
13795;SDS011;40911;51.552;9.874;2023-03-14T00:20:12;1.88;;;1.60;;
13795;SDS011;40911;51.552;9.874;2023-03-14T00:22:34;1.70;;;1.60;;
13795;SDS011;40911;51.552;9.874;2023-03-14T00:24:56;2.65;;;1.67;;
13795;SDS011;40911;51.552;9.874;2023-03-14T00:27:17;1.70;;;1.60;;
13795;SDS011;40911;51.552;9.874;2023-03-14T00:29:40;2.03;;;1.60;;
13795;SDS011;40911;51.552;9.874;2023-03-14T00:32:03;1.63;;;1.52;;
13795;SDS011;40911;51.552;9.874;2023-03-14T00:34:28;2.40;;;1.70;;
13795;SDS011;40911;51.552;9.874;2023-03-14T00:36:49;3.63;;;1.70;;
13795;SDS011;40911;51.552;9.874;2023-03-14T00:39:11;1.77;;;1.55;;
13795;SDS011;40911;51.552;9.874;2023-03-14T00:41:32;1.73;;;1.63;;
13795;SDS011;40911;51.552;9.874;2023-03-14T00:43:54;1.83;;;1.73;;
13795;SDS011;40911;51.552;9.874;2023-03-14T00:46:17;1.70;;;1.60;;
13795;SDS011;40911;51.552;9.874;2023-03-14T00:48:39;2.00;;;1.80;;
13795;SDS011;40911;51.552;9.874;2023-03-14T00:51:00;3.40;;;1.73;;
13795;SDS011;40911;51.552;9.874;2023-03-14T00:53:22;1.67;;;1.58;;
13795;SDS011;40911;51.552;9.874;2023-03-14T00:58:06;3.20;;;1.90;;
13795;SDS011;40911;51.552;9.874;2023-03-14T01:02:50;1.70;;;1.60;;
13795;SDS011;40911;51.552;9.874;2023-03-14T01:05:12;2.13;;;1.55;;
13795;SDS011;40911;51.552;9.874;2023-03-14T01:07:33;1.80;;;1.65;;
13795;SDS011;40911;51.552;9.874;2023-03-14T01:09:55;2.50;;;2.08;;
13795;SDS011;40911;51.552;9.874;2023-03-14T01:12:16;1.58;;;1.40;;
13795;SDS011;40911;51.552;9.874;2023-03-14T01:14:38;1.73;;;1.50;;
13795;SDS011;40911;51.552;9.874;2023-03-14T01:16:59;2.92;;;1.83;;
13795;SDS011;40911;51.552;9.874;2023-03-14T01:19:22;1.58;;;1.50;;
13795;SDS011;40911;51.552;9.874;2023-03-14T01:21:44;1.75;;;1.65;;
13795;SDS011;40911;51.552;9.874;2023-03-14T01:24:05;1.98;;;1.60;;
13795;SDS011;40911;51.552;9.874;2023-03-14T01:26:29;3.25;;;1.70;;
13795;SDS011;40911;51.552;9.874;2023-03-14T01:28:54;3.47;;;1.75;;
13795;SDS011;40911;51.552;9.874;2023-03-14T01:31:16;1.73;;;1.52;;
13795;SDS011;40911;51.552;9.874;2023-03-14T01:36:01;1.90;;;1.65;;
13795;SDS011;40911;51.552;9.874;2023-03-14T01:38:23;2.13;;;1.50;;
13795;SDS011;40911;51.552;9.874;2023-03-14T01:40:45;3.05;;;1.73;;
13795;SDS011;40911;51.552;9.874;2023-03-14T01:43:12;2.30;;;1.80;;
13795;SDS011;40911;51.552;9.874;2023-03-14T01:48:37;2.05;;;1.80;;
13795;SDS011;40911;51.552;9.874;2023-03-14T01:51:03;3.60;;;1.80;;
13795;SDS011;40911;51.552;9.874;2023-03-14T01:53:27;2.25;;;1.60;;
13795;SDS011;40911;51.552;9.874;2023-03-14T01:55:50;1.90;;;1.80;;
13795;SDS011;40911;51.552;9.874;2023-03-14T01:58:14;3.92;;;2.55;;
13795;SDS011;40911;51.552;9.874;2023-03-14T02:00:37;2.35;;;2.15;;
13795;SDS011;40911;51.552;9.874;2023-03-14T02:05:23;2.35;;;1.90;;
13795;SDS011;40911;51.552;9.874;2023-03-14T02:07:50;2.72;;;1.90;;
13795;SDS011;40911;51.552;9.874;2023-03-14T02:10:13;2.38;;;2.00;;
13795;SDS011;40911;51.552;9.874;2023-03-14T02:12:38;4.28;;;2.00;;
13795;SDS011;40911;51.552;9.874;2023-03-14T02:15:00;4.13;;;1.60;;
13795;SDS011;40911;51.552;9.874;2023-03-14T02:17:22;4.35;;;2.22;;
13795;SDS011;40911;51.552;9.874;2023-03-14T02:19:55;2.88;;;1.92;;
13795;SDS011;40911;51.552;9.874;2023-03-14T02:22:28;2.67;;;1.98;;
13795;SDS011;40911;51.552;9.874;2023-03-14T02:24:54;2.55;;;1.98;;
13795;SDS011;40911;51.552;9.874;2023-03-14T02:27:22;3.95;;;2.10;;
13795;SDS011;40911;51.552;9.874;2023-03-14T02:29:45;2.75;;;2.38;;
13795;SDS011;40911;51.552;9.874;2023-03-14T02:32:12;3.70;;;2.17;;
13795;SDS011;40911;51.552;9.874;2023-03-14T02:34:35;2.40;;;2.20;;
13795;SDS011;40911;51.552;9.874;2023-03-14T02:36:57;4.18;;;2.00;;
13795;SDS011;40911;51.552;9.874;2023-03-14T02:39:21;5.30;;;2.50;;
13795;SDS011;40911;51.552;9.874;2023-03-14T02:41:47;4.07;;;2.00;;
13795;SDS011;40911;51.552;9.874;2023-03-14T02:44:10;4.60;;;2.40;;
13795;SDS011;40911;51.552;9.874;2023-03-14T02:46:32;2.55;;;2.35;;
13795;SDS011;40911;51.552;9.874;2023-03-14T02:48:54;3.08;;;2.50;;
13795;SDS011;40911;51.552;9.874;2023-03-14T02:51:18;3.80;;;2.22;;
13795;SDS011;40911;51.552;9.874;2023-03-14T02:53:41;4.47;;;2.33;;
13795;SDS011;40911;51.552;9.874;2023-03-14T02:56:03;3.97;;;2.45;;
13795;SDS011;40911;51.552;9.874;2023-03-14T02:58:25;2.53;;;2.25;;
13795;SDS011;40911;51.552;9.874;2023-03-14T03:00:48;4.72;;;2.45;;
13795;SDS011;40911;51.552;9.874;2023-03-14T03:03:10;4.32;;;2.50;;
13795;SDS011;40911;51.552;9.874;2023-03-14T03:07:54;5.55;;;2.88;;
13795;SDS011;40911;51.552;9.874;2023-03-14T03:10:17;7.28;;;2.70;;
13795;SDS011;40911;51.552;9.874;2023-03-14T03:12:38;4.85;;;2.35;;
13795;SDS011;40911;51.552;9.874;2023-03-14T03:15:00;5.15;;;2.45;;
13795;SDS011;40911;51.552;9.874;2023-03-14T03:17:23;4.90;;;2.70;;
13795;SDS011;40911;51.552;9.874;2023-03-14T03:19:44;5.53;;;2.58;;
13795;SDS011;40911;51.552;9.874;2023-03-14T03:22:06;4.32;;;2.50;;
13795;SDS011;40911;51.552;9.874;2023-03-14T03:24:28;3.20;;;2.22;;
13795;SDS011;40911;51.552;9.874;2023-03-14T03:26:49;4.38;;;2.42;;
13795;SDS011;40911;51.552;9.874;2023-03-14T03:29:11;4.25;;;2.08;;
13795;SDS011;40911;51.552;9.874;2023-03-14T03:31:33;4.07;;;2.47;;
13795;SDS011;40911;51.552;9.874;2023-03-14T03:33:55;3.83;;;2.80;;
13795;SDS011;40911;51.552;9.874;2023-03-14T03:36:20;5.90;;;2.47;;
13795;SDS011;40911;51.552;9.874;2023-03-14T03:38:42;3.40;;;2.22;;
13795;SDS011;40911;51.552;9.874;2023-03-14T03:41:04;6.05;;;2.20;;
13795;SDS011;40911;51.552;9.874;2023-03-14T03:43:27;6.95;;;2.70;;
13795;SDS011;40911;51.552;9.874;2023-03-14T03:45:48;3.45;;;2.40;;
13795;SDS011;40911;51.552;9.874;2023-03-14T03:48:10;4.10;;;2.47;;
13795;SDS011;40911;51.552;9.874;2023-03-14T03:50:33;5.72;;;2.55;;
13795;SDS011;40911;51.552;9.874;2023-03-14T03:52:54;3.03;;;2.42;;
13795;SDS011;40911;51.552;9.874;2023-03-14T03:55:16;6.32;;;2.65;;
13795;SDS011;40911;51.552;9.874;2023-03-14T03:59:59;4.93;;;3.00;;
13795;SDS011;40911;51.552;9.874;2023-03-14T04:02:20;6.50;;;2.58;;
13795;SDS011;40911;51.552;9.874;2023-03-14T04:04:42;5.45;;;2.65;;
13795;SDS011;40911;51.552;9.874;2023-03-14T04:07:05;5.25;;;2.15;;
13795;SDS011;40911;51.552;9.874;2023-03-14T04:09:26;3.63;;;2.38;;
13795;SDS011;40911;51.552;9.874;2023-03-14T04:11:48;4.60;;;2.33;;
13795;SDS011;40911;51.552;9.874;2023-03-14T04:14:09;2.83;;;2.00;;
13795;SDS011;40911;51.552;9.874;2023-03-14T04:16:31;2.08;;;1.88;;
13795;SDS011;40911;51.552;9.874;2023-03-14T04:18:53;4.20;;;2.33;;
13795;SDS011;40911;51.552;9.874;2023-03-14T04:21:15;4.07;;;2.40;;
13795;SDS011;40911;51.552;9.874;2023-03-14T04:23:38;4.57;;;2.28;;
13795;SDS011;40911;51.552;9.874;2023-03-14T04:25:59;2.22;;;2.05;;
13795;SDS011;40911;51.552;9.874;2023-03-14T04:28:21;2.72;;;2.35;;
13795;SDS011;40911;51.552;9.874;2023-03-14T04:30:42;6.47;;;2.35;;
13795;SDS011;40911;51.552;9.874;2023-03-14T04:33:04;5.43;;;2.40;;
13795;SDS011;40911;51.552;9.874;2023-03-14T04:35:27;3.50;;;2.08;;
13795;SDS011;40911;51.552;9.874;2023-03-14T04:37:50;4.20;;;2.28;;
13795;SDS011;40911;51.552;9.874;2023-03-14T04:40:14;4.78;;;2.30;;
13795;SDS011;40911;51.552;9.874;2023-03-14T04:42:36;4.13;;;1.98;;
13795;SDS011;40911;51.552;9.874;2023-03-14T04:44:57;4.75;;;2.05;;
13795;SDS011;40911;51.552;9.874;2023-03-14T04:47:20;4.30;;;2.53;;
13795;SDS011;40911;51.552;9.874;2023-03-14T04:49:41;3.50;;;2.13;;
13795;SDS011;40911;51.552;9.874;2023-03-14T04:52:03;6.28;;;2.30;;
13795;SDS011;40911;51.552;9.874;2023-03-14T04:54:25;4.70;;;2.25;;
13795;SDS011;40911;51.552;9.874;2023-03-14T04:56:47;2.58;;;2.10;;
13795;SDS011;40911;51.552;9.874;2023-03-14T04:59:09;4.07;;;2.30;;
13795;SDS011;40911;51.552;9.874;2023-03-14T05:01:31;5.95;;;2.45;;
13795;SDS011;40911;51.552;9.874;2023-03-14T05:03:52;6.10;;;2.58;;
13795;SDS011;40911;51.552;9.874;2023-03-14T05:06:14;4.38;;;2.08;;
13795;SDS011;40911;51.552;9.874;2023-03-14T05:08:35;7.38;;;2.20;;
13795;SDS011;40911;51.552;9.874;2023-03-14T05:10:57;4.75;;;2.28;;
13795;SDS011;40911;51.552;9.874;2023-03-14T05:15:42;5.05;;;2.60;;
13795;SDS011;40911;51.552;9.874;2023-03-14T05:18:04;4.60;;;2.30;;
13795;SDS011;40911;51.552;9.874;2023-03-14T05:22:47;8.03;;;2.30;;
13795;SDS011;40911;51.552;9.874;2023-03-14T05:25:10;4.72;;;2.00;;
13795;SDS011;40911;51.552;9.874;2023-03-14T05:27:31;7.95;;;2.63;;
13795;SDS011;40911;51.552;9.874;2023-03-14T05:29:54;4.20;;;2.10;;
13795;SDS011;40911;51.552;9.874;2023-03-14T05:32:16;7.32;;;2.30;;
13795;SDS011;40911;51.552;9.874;2023-03-14T05:34:37;9.75;;;2.42;;
13795;SDS011;40911;51.552;9.874;2023-03-14T05:36:59;6.70;;;2.30;;
13795;SDS011;40911;51.552;9.874;2023-03-14T05:39:20;8.13;;;2.58;;
13795;SDS011;40911;51.552;9.874;2023-03-14T05:41:42;6.15;;;2.47;;
13795;SDS011;40911;51.552;9.874;2023-03-14T05:44:04;7.55;;;2.67;;
13795;SDS011;40911;51.552;9.874;2023-03-14T05:46:27;6.18;;;2.60;;
13795;SDS011;40911;51.552;9.874;2023-03-14T05:48:50;8.15;;;2.60;;
13795;SDS011;40911;51.552;9.874;2023-03-14T05:51:12;6.20;;;2.53;;
13795;SDS011;40911;51.552;9.874;2023-03-14T05:53:33;2.85;;;2.25;;
13795;SDS011;40911;51.552;9.874;2023-03-14T05:55:55;8.48;;;2.58;;
13795;SDS011;40911;51.552;9.874;2023-03-14T05:58:20;5.95;;;2.50;;
13795;SDS011;40911;51.552;9.874;2023-03-14T06:00:41;5.03;;;2.53;;
13795;SDS011;40911;51.552;9.874;2023-03-14T06:03:04;5.85;;;2.47;;
13795;SDS011;40911;51.552;9.874;2023-03-14T06:05:26;5.00;;;2.40;;
13795;SDS011;40911;51.552;9.874;2023-03-14T06:07:47;6.57;;;2.30;;
13795;SDS011;40911;51.552;9.874;2023-03-14T06:10:09;7.45;;;2.83;;
13795;SDS011;40911;51.552;9.874;2023-03-14T06:12:31;5.10;;;2.60;;
13795;SDS011;40911;51.552;9.874;2023-03-14T06:14:53;4.05;;;2.55;;
13795;SDS011;40911;51.552;9.874;2023-03-14T06:17:14;5.25;;;2.50;;
13795;SDS011;40911;51.552;9.874;2023-03-14T06:19:37;5.72;;;2.30;;
13795;SDS011;40911;51.552;9.874;2023-03-14T06:21:59;3.90;;;2.03;;
13795;SDS011;40911;51.552;9.874;2023-03-14T06:24:20;6.47;;;2.35;;
13795;SDS011;40911;51.552;9.874;2023-03-14T06:26:42;3.28;;;2.08;;
13795;SDS011;40911;51.552;9.874;2023-03-14T06:31:25;4.68;;;2.25;;
13795;SDS011;40911;51.552;9.874;2023-03-14T06:33:47;5.32;;;2.25;;
13795;SDS011;40911;51.552;9.874;2023-03-14T06:36:10;5.00;;;2.10;;
13795;SDS011;40911;51.552;9.874;2023-03-14T06:38:31;4.32;;;2.13;;
13795;SDS011;40911;51.552;9.874;2023-03-14T06:40:53;9.25;;;2.40;;
13795;SDS011;40911;51.552;9.874;2023-03-14T06:43:15;2.63;;;2.10;;
13795;SDS011;40911;51.552;9.874;2023-03-14T06:45:36;5.25;;;2.30;;
13795;SDS011;40911;51.552;9.874;2023-03-14T06:47:58;7.18;;;2.33;;
13795;SDS011;40911;51.552;9.874;2023-03-14T06:50:21;4.15;;;2.08;;
13795;SDS011;40911;51.552;9.874;2023-03-14T06:55:07;3.67;;;2.05;;
13795;SDS011;40911;51.552;9.874;2023-03-14T06:57:29;1.95;;;1.65;;
13795;SDS011;40911;51.552;9.874;2023-03-14T06:59:51;1.92;;;1.75;;
13795;SDS011;40911;51.552;9.874;2023-03-14T07:02:13;4.63;;;2.00;;
13795;SDS011;40911;51.552;9.874;2023-03-14T07:04:34;3.13;;;2.10;;
13795;SDS011;40911;51.552;9.874;2023-03-14T07:06:56;1.80;;;1.70;;
13795;SDS011;40911;51.552;9.874;2023-03-14T07:09:19;3.00;;;2.10;;
13795;SDS011;40911;51.552;9.874;2023-03-14T07:11:41;5.18;;;2.50;;
13795;SDS011;40911;51.552;9.874;2023-03-14T07:14:02;4.95;;;1.90;;
13795;SDS011;40911;51.552;9.874;2023-03-14T07:16:24;4.07;;;1.80;;
13795;SDS011;40911;51.552;9.874;2023-03-14T07:18:48;3.08;;;2.00;;
13795;SDS011;40911;51.552;9.874;2023-03-14T07:21:10;2.75;;;1.90;;
13795;SDS011;40911;51.552;9.874;2023-03-14T07:25:54;2.50;;;2.25;;
13795;SDS011;40911;51.552;9.874;2023-03-14T07:28:16;3.35;;;1.95;;
13795;SDS011;40911;51.552;9.874;2023-03-14T07:32:59;4.13;;;2.10;;
13795;SDS011;40911;51.552;9.874;2023-03-14T07:35:21;4.53;;;1.95;;
13795;SDS011;40911;51.552;9.874;2023-03-14T07:37:42;4.32;;;1.90;;
13795;SDS011;40911;51.552;9.874;2023-03-14T07:40:04;2.83;;;1.80;;
13795;SDS011;40911;51.552;9.874;2023-03-14T07:42:29;3.30;;;2.13;;
13795;SDS011;40911;51.552;9.874;2023-03-14T07:44:50;2.03;;;1.65;;
13795;SDS011;40911;51.552;9.874;2023-03-14T07:47:12;4.75;;;1.80;;
13795;SDS011;40911;51.552;9.874;2023-03-14T07:49:34;4.13;;;1.80;;
13795;SDS011;40911;51.552;9.874;2023-03-14T07:51:55;1.58;;;1.48;;
13795;SDS011;40911;51.552;9.874;2023-03-14T07:54:18;1.95;;;1.40;;
13795;SDS011;40911;51.552;9.874;2023-03-14T07:59:02;4.03;;;1.90;;
13795;SDS011;40911;51.552;9.874;2023-03-14T08:01:24;2.53;;;1.67;;
13795;SDS011;40911;51.552;9.874;2023-03-14T08:03:46;4.43;;;2.00;;
13795;SDS011;40911;51.552;9.874;2023-03-14T08:06:07;3.45;;;1.80;;
13795;SDS011;40911;51.552;9.874;2023-03-14T08:08:29;5.28;;;1.95;;
13795;SDS011;40911;51.552;9.874;2023-03-14T08:10:50;5.03;;;1.92;;
13795;SDS011;40911;51.552;9.874;2023-03-14T08:13:12;2.97;;;1.70;;
13795;SDS011;40911;51.552;9.874;2023-03-14T08:15:35;2.17;;;1.52;;
13795;SDS011;40911;51.552;9.874;2023-03-14T08:17:57;4.55;;;1.92;;
13795;SDS011;40911;51.552;9.874;2023-03-14T08:20:19;14.43;;;1.88;;
13795;SDS011;40911;51.552;9.874;2023-03-14T08:22:42;4.40;;;1.73;;
13795;SDS011;40911;51.552;9.874;2023-03-14T08:25:03;4.15;;;1.70;;
13795;SDS011;40911;51.552;9.874;2023-03-14T08:27:26;1.60;;;1.50;;
13795;SDS011;40911;51.552;9.874;2023-03-14T08:29:47;4.50;;;1.80;;
13795;SDS011;40911;51.552;9.874;2023-03-14T08:32:10;4.25;;;1.33;;
13795;SDS011;40911;51.552;9.874;2023-03-14T08:34:32;4.20;;;1.60;;
13795;SDS011;40911;51.552;9.874;2023-03-14T08:36:54;4.78;;;1.75;;
13795;SDS011;40911;51.552;9.874;2023-03-14T08:39:16;2.70;;;1.40;;
13795;SDS011;40911;51.552;9.874;2023-03-14T08:41:38;2.60;;;1.70;;
13795;SDS011;40911;51.552;9.874;2023-03-14T08:44:02;1.73;;;1.40;;
13795;SDS011;40911;51.552;9.874;2023-03-14T08:46:24;1.65;;;1.52;;
13795;SDS011;40911;51.552;9.874;2023-03-14T08:48:47;4.50;;;1.80;;
13795;SDS011;40911;51.552;9.874;2023-03-14T08:51:09;2.78;;;1.67;;
13795;SDS011;40911;51.552;9.874;2023-03-14T08:53:35;6.47;;;1.67;;
13795;SDS011;40911;51.552;9.874;2023-03-14T08:55:56;2.95;;;1.52;;
13795;SDS011;40911;51.552;9.874;2023-03-14T08:58:18;1.80;;;1.67;;
13795;SDS011;40911;51.552;9.874;2023-03-14T09:00:39;2.25;;;1.48;;
13795;SDS011;40911;51.552;9.874;2023-03-14T09:03:01;1.40;;;1.25;;
13795;SDS011;40911;51.552;9.874;2023-03-14T09:05:24;2.55;;;1.55;;
13795;SDS011;40911;51.552;9.874;2023-03-14T09:07:45;2.85;;;1.50;;
13795;SDS011;40911;51.552;9.874;2023-03-14T09:10:08;1.50;;;1.40;;
13795;SDS011;40911;51.552;9.874;2023-03-14T09:12:31;2.47;;;1.40;;
13795;SDS011;40911;51.552;9.874;2023-03-14T09:17:14;2.35;;;1.65;;
13795;SDS011;40911;51.552;9.874;2023-03-14T09:19:35;3.70;;;1.80;;
13795;SDS011;40911;51.552;9.874;2023-03-14T09:21:58;1.50;;;1.40;;
13795;SDS011;40911;51.552;9.874;2023-03-14T09:24:20;2.22;;;1.55;;
13795;SDS011;40911;51.552;9.874;2023-03-14T09:26:41;1.60;;;1.50;;
13795;SDS011;40911;51.552;9.874;2023-03-14T09:29:03;1.40;;;1.35;;
13795;SDS011;40911;51.552;9.874;2023-03-14T09:36:08;2.38;;;1.35;;
13795;SDS011;40911;51.552;9.874;2023-03-14T09:38:32;2.80;;;1.30;;
13795;SDS011;40911;51.552;9.874;2023-03-14T09:40:54;1.30;;;1.20;;
13795;SDS011;40911;51.552;9.874;2023-03-14T09:43:18;2.08;;;1.23;;
13795;SDS011;40911;51.552;9.874;2023-03-14T09:45:42;1.38;;;1.27;;
13795;SDS011;40911;51.552;9.874;2023-03-14T09:48:08;1.10;;;1.10;;
13795;SDS011;40911;51.552;9.874;2023-03-14T09:50:36;3.67;;;1.33;;
13795;SDS011;40911;51.552;9.874;2023-03-14T09:53:02;1.92;;;1.23;;
13795;SDS011;40911;51.552;9.874;2023-03-14T09:55:28;1.17;;;1.10;;
13795;SDS011;40911;51.552;9.874;2023-03-14T09:57:51;2.25;;;1.30;;
13795;SDS011;40911;51.552;9.874;2023-03-14T10:00:18;1.30;;;1.20;;
13795;SDS011;40911;51.552;9.874;2023-03-14T10:02:42;2.10;;;1.20;;
13795;SDS011;40911;51.552;9.874;2023-03-14T10:05:13;3.55;;;1.30;;
13795;SDS011;40911;51.552;9.874;2023-03-14T10:07:37;1.67;;;1.58;;
13795;SDS011;40911;51.552;9.874;2023-03-14T10:09:59;1.92;;;1.20;;
13795;SDS011;40911;51.552;9.874;2023-03-14T10:12:31;2.22;;;1.40;;
13795;SDS011;40911;51.552;9.874;2023-03-14T10:15:02;1.25;;;1.20;;
13795;SDS011;40911;51.552;9.874;2023-03-14T10:17:26;1.55;;;1.40;;
13795;SDS011;40911;51.552;9.874;2023-03-14T10:19:53;1.23;;;1.20;;
13795;SDS011;40911;51.552;9.874;2023-03-14T10:22:17;1.65;;;1.10;;
13795;SDS011;40911;51.552;9.874;2023-03-14T10:24:40;1.67;;;1.10;;
13795;SDS011;40911;51.552;9.874;2023-03-14T10:27:18;1.90;;;1.23;;
13795;SDS011;40911;51.552;9.874;2023-03-14T10:29:51;1.30;;;1.20;;
13795;SDS011;40911;51.552;9.874;2023-03-14T10:32:18;2.47;;;1.20;;
13795;SDS011;40911;51.552;9.874;2023-03-14T10:34:41;1.10;;;1.10;;
13795;SDS011;40911;51.552;9.874;2023-03-14T10:37:05;1.98;;;1.25;;
13795;SDS011;40911;51.552;9.874;2023-03-14T10:39:34;1.75;;;1.10;;
13795;SDS011;40911;51.552;9.874;2023-03-14T10:42:02;1.40;;;1.30;;
13795;SDS011;40911;51.552;9.874;2023-03-14T10:44:26;1.45;;;1.13;;
13795;SDS011;40911;51.552;9.874;2023-03-14T10:46:55;1.83;;;1.45;;
13795;SDS011;40911;51.552;9.874;2023-03-14T10:49:23;1.55;;;1.40;;
13795;SDS011;40911;51.552;9.874;2023-03-14T10:51:48;3.22;;;1.48;;
13795;SDS011;40911;51.552;9.874;2023-03-14T10:54:12;1.45;;;1.35;;
13795;SDS011;40911;51.552;9.874;2023-03-14T10:56:36;1.40;;;1.30;;
13795;SDS011;40911;51.552;9.874;2023-03-14T10:58:59;1.50;;;1.40;;
13795;SDS011;40911;51.552;9.874;2023-03-14T11:01:26;1.67;;;1.38;;
13795;SDS011;40911;51.552;9.874;2023-03-14T11:03:57;1.55;;;1.30;;
13795;SDS011;40911;51.552;9.874;2023-03-14T11:06:24;1.52;;;1.42;;
13795;SDS011;40911;51.552;9.874;2023-03-14T11:08:52;3.13;;;1.50;;
13795;SDS011;40911;51.552;9.874;2023-03-14T11:11:22;1.45;;;1.35;;
13795;SDS011;40911;51.552;9.874;2023-03-14T11:13:48;1.23;;;1.20;;
13795;SDS011;40911;51.552;9.874;2023-03-14T11:16:21;1.70;;;1.30;;
13795;SDS011;40911;51.552;9.874;2023-03-14T11:19:00;2.88;;;1.55;;
13795;SDS011;40911;51.552;9.874;2023-03-14T11:21:35;1.40;;;1.30;;
13795;SDS011;40911;51.552;9.874;2023-03-14T11:24:06;1.50;;;1.40;;
13795;SDS011;40911;51.552;9.874;2023-03-14T11:26:40;1.50;;;1.40;;
13795;SDS011;40911;51.552;9.874;2023-03-14T11:29:09;1.45;;;1.20;;
13795;SDS011;40911;51.552;9.874;2023-03-14T11:31:39;1.50;;;1.40;;
13795;SDS011;40911;51.552;9.874;2023-03-14T11:34:10;1.65;;;1.20;;
13795;SDS011;40911;51.552;9.874;2023-03-14T11:36:41;1.60;;;1.20;;
13795;SDS011;40911;51.552;9.874;2023-03-14T11:39:10;2.30;;;1.50;;
13795;SDS011;40911;51.552;9.874;2023-03-14T11:41:36;1.98;;;1.40;;
13795;SDS011;40911;51.552;9.874;2023-03-14T11:44:01;1.38;;;1.20;;
13795;SDS011;40911;51.552;9.874;2023-03-14T11:46:26;1.73;;;1.10;;
13795;SDS011;40911;51.552;9.874;2023-03-14T11:48:53;1.40;;;1.30;;
13795;SDS011;40911;51.552;9.874;2023-03-14T11:51:22;1.50;;;1.40;;
13795;SDS011;40911;51.552;9.874;2023-03-14T11:53:48;1.17;;;1.08;;
13795;SDS011;40911;51.552;9.874;2023-03-14T11:56:18;2.35;;;1.40;;
13795;SDS011;40911;51.552;9.874;2023-03-14T11:58:48;1.30;;;1.20;;
13795;SDS011;40911;51.552;9.874;2023-03-14T12:01:15;1.30;;;1.20;;
13795;SDS011;40911;51.552;9.874;2023-03-14T12:03:42;1.77;;;1.10;;
13795;SDS011;40911;51.552;9.874;2023-03-14T12:06:13;1.30;;;1.20;;
13795;SDS011;40911;51.552;9.874;2023-03-14T12:08:43;2.05;;;1.27;;
13795;SDS011;40911;51.552;9.874;2023-03-14T12:11:12;1.30;;;1.20;;
13795;SDS011;40911;51.552;9.874;2023-03-14T12:13:38;2.90;;;1.70;;
13795;SDS011;40911;51.552;9.874;2023-03-14T12:16:04;2.17;;;1.45;;
13795;SDS011;40911;51.552;9.874;2023-03-14T12:18:27;2.72;;;1.25;;
13795;SDS011;40911;51.552;9.874;2023-03-14T12:20:51;4.28;;;1.52;;
13795;SDS011;40911;51.552;9.874;2023-03-14T12:23:15;2.95;;;1.30;;
13795;SDS011;40911;51.552;9.874;2023-03-14T12:25:38;3.30;;;1.13;;
13795;SDS011;40911;51.552;9.874;2023-03-14T12:28:04;2.42;;;1.10;;
13795;SDS011;40911;51.552;9.874;2023-03-14T12:30:38;2.13;;;1.00;;
13795;SDS011;40911;51.552;9.874;2023-03-14T12:33:11;1.00;;;1.00;;
13795;SDS011;40911;51.552;9.874;2023-03-14T12:35:41;2.95;;;1.15;;
13795;SDS011;40911;51.552;9.874;2023-03-14T12:38:04;1.20;;;1.20;;
13795;SDS011;40911;51.552;9.874;2023-03-14T12:40:29;1.55;;;1.25;;
13795;SDS011;40911;51.552;9.874;2023-03-14T12:42:56;1.20;;;1.20;;
13795;SDS011;40911;51.552;9.874;2023-03-14T12:45:23;1.20;;;1.20;;
13795;SDS011;40911;51.552;9.874;2023-03-14T12:47:49;1.30;;;1.30;;
13795;SDS011;40911;51.552;9.874;2023-03-14T12:50:15;1.20;;;1.20;;
13795;SDS011;40911;51.552;9.874;2023-03-14T12:52:43;1.30;;;1.30;;
13795;SDS011;40911;51.552;9.874;2023-03-14T12:55:17;1.42;;;1.30;;
13795;SDS011;40911;51.552;9.874;2023-03-14T12:57:44;1.45;;;1.38;;
13795;SDS011;40911;51.552;9.874;2023-03-14T13:00:20;1.30;;;1.30;;
13795;SDS011;40911;51.552;9.874;2023-03-14T13:02:44;1.42;;;1.40;;
13795;SDS011;40911;51.552;9.874;2023-03-14T13:05:12;1.45;;;1.35;;
13795;SDS011;40911;51.552;9.874;2023-03-14T13:08:02;1.40;;;1.30;;
13795;SDS011;40911;51.552;9.874;2023-03-14T13:10:25;1.38;;;1.38;;
13795;SDS011;40911;51.552;9.874;2023-03-14T13:12:53;1.30;;;1.30;;
13795;SDS011;40911;51.552;9.874;2023-03-14T13:15:21;1.30;;;1.30;;
13795;SDS011;40911;51.552;9.874;2023-03-14T13:17:46;1.38;;;1.38;;
13795;SDS011;40911;51.552;9.874;2023-03-14T13:20:10;1.38;;;1.38;;
13795;SDS011;40911;51.552;9.874;2023-03-14T13:22:35;1.60;;;1.50;;
13795;SDS011;40911;51.552;9.874;2023-03-14T13:24:59;1.40;;;1.40;;
13795;SDS011;40911;51.552;9.874;2023-03-14T13:27:22;1.40;;;1.40;;
13795;SDS011;40911;51.552;9.874;2023-03-14T13:29:44;1.40;;;1.40;;
13795;SDS011;40911;51.552;9.874;2023-03-14T13:32:16;2.35;;;1.48;;
13795;SDS011;40911;51.552;9.874;2023-03-14T13:34:40;1.38;;;1.38;;
13795;SDS011;40911;51.552;9.874;2023-03-14T13:37:02;1.40;;;1.40;;
13795;SDS011;40911;51.552;9.874;2023-03-14T13:39:24;1.40;;;1.40;;
13795;SDS011;40911;51.552;9.874;2023-03-14T13:41:49;1.40;;;1.40;;
13795;SDS011;40911;51.552;9.874;2023-03-14T13:44:14;1.50;;;1.50;;
13795;SDS011;40911;51.552;9.874;2023-03-14T13:46:39;1.50;;;1.50;;
13795;SDS011;40911;51.552;9.874;2023-03-14T13:49:03;1.40;;;1.40;;
13795;SDS011;40911;51.552;9.874;2023-03-14T13:51:28;1.63;;;1.52;;
13795;SDS011;40911;51.552;9.874;2023-03-14T13:53:53;1.40;;;1.40;;
13795;SDS011;40911;51.552;9.874;2023-03-14T13:56:16;1.75;;;1.65;;
13795;SDS011;40911;51.552;9.874;2023-03-14T13:58:39;1.67;;;1.67;;
13795;SDS011;40911;51.552;9.874;2023-03-14T14:01:10;1.80;;;1.70;;
13795;SDS011;40911;51.552;9.874;2023-03-14T14:03:43;1.98;;;1.80;;
13795;SDS011;40911;51.552;9.874;2023-03-14T14:06:10;1.85;;;1.75;;
13795;SDS011;40911;51.552;9.874;2023-03-14T14:08:40;1.85;;;1.75;;
13795;SDS011;40911;51.552;9.874;2023-03-14T14:11:03;1.90;;;1.80;;
13795;SDS011;40911;51.552;9.874;2023-03-14T14:13:25;2.45;;;2.00;;
13795;SDS011;40911;51.552;9.874;2023-03-14T14:15:51;2.60;;;2.03;;
13795;SDS011;40911;51.552;9.874;2023-03-14T14:18:15;2.90;;;1.90;;
13795;SDS011;40911;51.552;9.874;2023-03-14T14:20:40;2.33;;;2.13;;
13795;SDS011;40911;51.552;9.874;2023-03-14T14:23:06;2.60;;;2.10;;
13795;SDS011;40911;51.552;9.874;2023-03-14T14:25:32;2.50;;;2.28;;
13795;SDS011;40911;51.552;9.874;2023-03-14T14:27:54;2.53;;;2.33;;
13795;SDS011;40911;51.552;9.874;2023-03-14T14:30:26;3.83;;;2.40;;
13795;SDS011;40911;51.552;9.874;2023-03-14T14:32:50;4.28;;;2.55;;
13795;SDS011;40911;51.552;9.874;2023-03-14T14:35:21;3.70;;;2.20;;
13795;SDS011;40911;51.552;9.874;2023-03-14T14:37:44;2.42;;;2.20;;
13795;SDS011;40911;51.552;9.874;2023-03-14T14:40:08;2.60;;;2.40;;
13795;SDS011;40911;51.552;9.874;2023-03-14T14:42:38;3.28;;;2.72;;
13795;SDS011;40911;51.552;9.874;2023-03-14T14:45:02;6.30;;;2.63;;
13795;SDS011;40911;51.552;9.874;2023-03-14T14:47:24;7.03;;;2.95;;
13795;SDS011;40911;51.552;9.874;2023-03-14T14:49:49;5.57;;;2.50;;
13795;SDS011;40911;51.552;9.874;2023-03-14T14:52:12;5.18;;;2.83;;
13795;SDS011;40911;51.552;9.874;2023-03-14T14:54:37;4.50;;;2.47;;
13795;SDS011;40911;51.552;9.874;2023-03-14T14:57:03;4.68;;;2.80;;
13795;SDS011;40911;51.552;9.874;2023-03-14T14:59:26;3.10;;;2.40;;
13795;SDS011;40911;51.552;9.874;2023-03-14T15:01:49;3.45;;;2.53;;
13795;SDS011;40911;51.552;9.874;2023-03-14T15:04:12;4.75;;;2.63;;
13795;SDS011;40911;51.552;9.874;2023-03-14T15:06:36;6.88;;;2.65;;
13795;SDS011;40911;51.552;9.874;2023-03-14T15:08:58;6.30;;;2.50;;